createdAt,value
2019-04-09T00:02:44.810Z,35.53
2019-04-09T00:05:14.509Z,43.17
2019-04-09T00:07:56.708Z,41.80
2019-04-09T00:10:15.099Z,40.93
2019-04-09T00:12:45.238Z,42.30
2019-04-09T00:15:14.278Z,38.67
2019-04-09T00:17:42.820Z,42.23
2019-04-09T00:20:12.442Z,42.20
2019-04-09T00:22:41.262Z,44.37
2019-04-09T00:25:10.225Z,43.73
2019-04-09T00:27:39.003Z,48.27
2019-04-09T00:30:10.218Z,41.43
2019-04-09T00:32:38.913Z,41.07
2019-04-09T00:35:07.590Z,40.00
2019-04-09T00:37:36.121Z,40.30
2019-04-09T00:40:07.973Z,41.83
2019-04-09T00:42:36.508Z,43.57
2019-04-09T00:45:06.202Z,48.03
2019-04-09T00:47:34.923Z,41.87
2019-04-09T00:50:06.309Z,43.27
2019-04-09T00:52:36.286Z,40.23
2019-04-09T00:55:07.399Z,43.80
2019-04-09T00:57:36.801Z,42.10
2019-04-09T01:00:07.850Z,43.73
2019-04-09T01:02:36.703Z,41.60
2019-04-09T01:05:06.189Z,43.97
2019-04-09T01:07:35.016Z,36.73
2019-04-09T01:10:04.389Z,36.97
2019-04-09T01:12:32.959Z,38.77
2019-04-09T01:15:02.561Z,36.10
2019-04-09T01:17:31.769Z,40.27
2019-04-09T01:20:00.640Z,36.73
2019-04-09T01:22:29.293Z,37.43
2019-04-09T01:24:59.767Z,35.80
2019-04-09T01:27:30.812Z,34.13
2019-04-09T01:30:03.906Z,31.77
2019-04-09T01:32:50.320Z,38.80
2019-04-09T01:35:33.186Z,36.57
2019-04-09T01:38:04.060Z,34.60
2019-04-09T01:40:46.526Z,40.50
2019-04-09T01:43:32.331Z,38.20
2019-04-09T01:46:06.330Z,34.67
2019-04-09T01:48:48.854Z,34.10
2019-04-09T01:51:19.065Z,33.83
2019-04-09T01:53:55.482Z,33.17
2019-04-09T01:56:25.630Z,30.83
2019-04-09T01:58:55.771Z,32.00
2019-04-09T02:01:42.161Z,32.13
2019-04-09T02:04:28.466Z,34.37
2019-04-09T02:07:04.673Z,33.17
2019-04-09T02:09:38.093Z,42.37
2019-04-09T02:12:12.436Z,36.67
2019-04-09T02:14:42.656Z,37.37
2019-04-09T02:17:24.898Z,34.80
2019-04-09T02:19:58.376Z,31.13
2019-04-09T02:22:38.426Z,32.40
2019-04-09T02:25:25.122Z,37.30
2019-04-09T02:28:04.782Z,40.20
2019-04-09T02:30:45.604Z,35.40
2019-04-09T02:33:23.145Z,37.70
2019-04-09T02:35:57.414Z,38.50
2019-04-09T02:38:37.726Z,33.93
2019-04-09T02:41:25.223Z,34.60
2019-04-09T02:44:11.989Z,37.43
2019-04-09T02:46:42.825Z,36.33
2019-04-09T02:49:19.233Z,36.90
2019-04-09T02:51:58.590Z,36.13
2019-04-09T02:54:46.942Z,37.13
2019-04-09T02:57:29.135Z,32.70
2019-04-09T03:00:17.532Z,31.10
2019-04-09T03:02:47.847Z,31.70
2019-04-09T03:05:32.958Z,32.63
2019-04-09T03:08:12.892Z,36.07
2019-04-09T03:10:58.562Z,31.63
2019-04-09T03:13:37.858Z,36.30
2019-04-09T03:16:09.651Z,36.97
2019-04-09T03:18:42.910Z,35.77
2019-04-09T03:21:25.939Z,33.37
2019-04-09T03:23:56.290Z,32.77
2019-04-09T03:26:26.869Z,33.33
2019-04-09T03:29:09.620Z,33.23
2019-04-09T03:31:40.186Z,35.77
2019-04-09T03:34:27.894Z,33.70
2019-04-09T03:37:15.335Z,36.47
2019-04-09T03:39:46.772Z,35.13
2019-04-09T03:42:17.014Z,37.67
2019-04-09T03:44:56.243Z,36.27
2019-04-09T03:47:42.930Z,38.63
2019-04-09T03:50:46.160Z,32.17
2019-04-09T03:53:28.729Z,39.90
2019-04-09T03:56:16.011Z,33.57
2019-04-09T03:58:51.912Z,36.63
2019-04-09T04:01:38.994Z,33.27
2019-04-09T04:04:09.558Z,34.50
2019-04-09T04:06:57.533Z,38.87
2019-04-09T04:09:27.720Z,39.63
2019-04-09T04:12:00.916Z,34.30
2019-04-09T04:14:37.365Z,34.10
2019-04-09T04:17:07.591Z,32.90
2019-04-09T04:19:47.013Z,34.40
2019-04-09T04:22:22.982Z,35.07
2019-04-09T04:24:55.898Z,32.40
2019-04-09T04:27:39.021Z,32.57
2019-04-09T04:30:12.832Z,35.13
2019-04-09T04:32:49.790Z,35.20
2019-04-09T04:35:20.158Z,38.77
2019-04-09T04:37:50.281Z,33.63
2019-04-09T04:40:32.220Z,37.37
2019-04-09T04:43:08.399Z,32.83
2019-04-09T04:45:55.110Z,36.00
2019-04-09T04:48:31.406Z,34.67
2019-04-09T04:51:10.489Z,37.47
2019-04-09T04:53:43.383Z,38.27
2019-04-09T04:56:32.023Z,34.30
2019-04-09T04:59:14.192Z,37.20
2019-04-09T05:02:02.733Z,34.63
2019-04-09T05:04:50.369Z,37.83
2019-04-09T05:07:43.104Z,34.57
2019-04-09T05:10:21.569Z,33.77
2019-04-09T05:13:00.818Z,40.33
2019-04-09T05:15:36.762Z,34.20
2019-04-09T05:18:15.983Z,37.37
2019-04-09T05:20:49.258Z,34.60
2019-04-09T05:23:31.767Z,38.13
2019-04-09T05:26:13.855Z,38.67
2019-04-09T05:28:52.604Z,35.43
2019-04-09T05:31:16.815Z,30.63
2019-04-09T05:33:49.829Z,35.37
2019-04-09T05:36:25.555Z,42.23
2019-04-09T05:39:02.796Z,36.53
2019-04-09T05:41:52.285Z,36.67
2019-04-09T05:44:41.071Z,31.80
2019-04-09T05:47:26.530Z,33.13
2019-04-09T05:49:56.672Z,34.43
2019-04-09T05:52:29.814Z,33.40
2019-04-09T05:55:03.015Z,35.03
2019-04-09T05:57:37.200Z,38.10
2019-04-09T06:00:19.799Z,36.90
2019-04-09T06:02:53.555Z,36.70
2019-04-09T06:05:30.968Z,34.20
2019-04-09T06:08:01.828Z,36.47
2019-04-09T06:10:30.982Z,36.07
2019-04-09T06:12:59.522Z,36.67
2019-04-09T06:15:28.817Z,35.13
2019-04-09T06:17:57.442Z,39.10
2019-04-09T06:20:26.002Z,43.87
2019-04-09T06:22:54.471Z,35.30
2019-04-09T06:25:23.129Z,39.63
2019-04-09T06:27:51.681Z,40.43
2019-04-09T06:30:20.388Z,34.97
2019-04-09T06:32:53.566Z,35.27
2019-04-09T06:35:26.603Z,37.97
2019-04-09T06:38:09.190Z,38.20
2019-04-09T06:40:48.656Z,29.00
2019-04-09T06:43:28.216Z,37.50
2019-04-09T06:46:07.670Z,35.70
2019-04-09T06:48:55.659Z,38.30
2019-04-09T06:51:35.728Z,38.97
2019-04-09T06:54:06.826Z,39.17
2019-04-09T06:56:52.978Z,44.63
2019-04-09T06:59:29.553Z,41.43
2019-04-09T07:02:01.592Z,39.10
2019-04-09T07:04:32.299Z,37.47
2019-04-09T07:07:09.366Z,44.30
2019-04-09T07:09:55.853Z,35.70
2019-04-09T07:12:26.925Z,38.93
2019-04-09T07:15:03.241Z,44.03
2019-04-09T07:17:45.214Z,44.70
2019-04-09T07:20:27.896Z,45.10
2019-04-09T07:23:01.584Z,48.23
2019-04-09T07:25:32.031Z,46.40
2019-04-09T07:28:05.058Z,49.40
2019-04-09T07:30:53.940Z,45.87
2019-04-09T07:33:44.878Z,44.67
2019-04-09T07:36:14.829Z,52.63
2019-04-09T07:38:48.254Z,44.83
2019-04-09T07:41:32.953Z,45.83
2019-04-09T07:44:06.183Z,39.97
2019-04-09T07:46:36.365Z,44.60
2019-04-09T07:49:08.257Z,49.00
2019-04-09T07:51:45.878Z,48.40
2019-04-09T07:54:16.238Z,51.07
2019-04-09T07:57:02.208Z,47.40
2019-04-09T07:59:41.882Z,49.67
2019-04-09T08:02:12.078Z,52.30
2019-04-09T08:04:51.299Z,52.40
2019-04-09T08:07:38.796Z,53.00
2019-04-09T08:10:26.236Z,51.50
2019-04-09T08:13:09.058Z,50.30
2019-04-09T08:15:55.762Z,53.27
2019-04-09T08:18:43.059Z,52.00
2019-04-09T08:21:29.212Z,50.50
2019-04-09T08:24:21.911Z,49.57
2019-04-09T08:27:01.970Z,49.00
2019-04-09T08:29:33.503Z,47.77
2019-04-09T08:32:16.837Z,50.53
2019-04-09T08:35:04.983Z,50.00
2019-04-09T08:37:45.389Z,52.37
2019-04-09T08:40:27.806Z,50.80
2019-04-09T08:43:01.749Z,52.70
2019-04-09T08:45:30.558Z,47.20
2019-04-09T08:48:08.564Z,50.80
2019-04-09T08:50:54.713Z,53.77
2019-04-09T08:53:30.511Z,54.43
2019-04-09T08:56:06.307Z,58.43
2019-04-09T08:58:41.858Z,53.70
2019-04-09T09:01:42.252Z,49.83
2019-04-09T09:03:54.820Z,63.13
2019-04-09T09:06:21.745Z,50.40
2019-04-09T09:08:56.677Z,49.47
2019-04-09T09:11:35.524Z,56.90
2019-04-09T09:14:08.482Z,51.23
2019-04-09T09:16:39.687Z,46.93
2019-04-09T09:19:29.634Z,50.57
2019-04-09T09:22:14.561Z,51.83
2019-04-09T09:24:54.589Z,53.53
2019-04-09T09:27:31.618Z,59.17
2019-04-09T09:30:04.375Z,53.70
2019-04-09T09:32:51.445Z,53.80
2019-04-09T09:35:31.805Z,54.50
2019-04-09T09:38:11.353Z,56.10
2019-04-09T09:40:47.636Z,61.93
2019-04-09T09:43:26.063Z,51.40
2019-04-09T09:46:12.485Z,59.17
2019-04-09T09:48:43.052Z,51.27
2019-04-09T09:51:16.738Z,52.47
2019-04-09T09:53:48.218Z,54.40
2019-04-09T09:56:25.684Z,58.77
2019-04-09T09:58:54.353Z,52.27
2019-04-09T10:01:42.612Z,57.90
2019-04-09T10:04:19.516Z,62.00
2019-04-09T10:06:54.176Z,63.53
2019-04-09T10:09:43.052Z,52.47
2019-04-09T10:12:29.069Z,53.40
2019-04-09T10:14:50.700Z,54.70
2019-04-09T10:17:27.836Z,53.90
2019-04-09T10:20:09.718Z,50.63
2019-04-09T10:22:46.030Z,59.53
2019-04-09T10:25:16.447Z,68.63
2019-04-09T10:27:56.539Z,57.73
2019-04-09T10:30:27.747Z,56.40
2019-04-09T10:33:14.684Z,47.77
2019-04-09T10:35:44.841Z,50.70
2019-04-09T10:38:30.238Z,60.03
2019-04-09T10:41:22.631Z,50.10
2019-04-09T10:44:05.566Z,47.57
2019-04-09T10:46:37.005Z,51.30
2019-04-09T10:49:15.785Z,46.97
2019-04-09T10:51:52.029Z,51.20
2019-04-09T10:54:22.250Z,43.87
2019-04-09T10:56:55.785Z,46.10
2019-04-09T10:59:32.255Z,48.77
2019-04-09T11:02:11.033Z,38.43
2019-04-09T11:04:43.703Z,46.60
2019-04-09T11:07:15.846Z,40.57
2019-04-09T11:09:57.862Z,42.23
2019-04-09T11:12:35.824Z,39.40
2019-04-09T11:15:07.475Z,43.60
2019-04-09T11:17:39.871Z,39.60
2019-04-09T11:20:29.056Z,37.13
2019-04-09T11:23:02.969Z,35.33
2019-04-09T11:25:51.688Z,34.70
2019-04-09T11:28:25.226Z,39.53
2019-04-09T11:30:58.118Z,40.90
2019-04-09T11:33:28.933Z,42.37
2019-04-09T11:36:05.084Z,38.30
2019-04-09T11:38:52.728Z,43.83
2019-04-09T11:41:28.858Z,36.57
2019-04-09T11:43:58.967Z,40.67
2019-04-09T11:46:34.804Z,40.23
2019-04-09T11:49:22.598Z,40.00
2019-04-09T11:52:07.787Z,40.90
2019-04-09T11:54:54.637Z,45.30
2019-04-09T11:57:37.768Z,39.70
2019-04-09T12:00:27.910Z,36.03
2019-04-09T12:03:14.786Z,44.50
2019-04-09T12:05:47.372Z,39.43
2019-04-09T12:08:22.470Z,42.70
2019-04-09T12:10:52.653Z,38.37
2019-04-09T12:13:40.303Z,42.20
2019-04-09T12:16:10.513Z,40.07
2019-04-09T12:18:40.650Z,43.03
2019-04-09T12:21:11.212Z,38.10
2019-04-09T12:23:41.678Z,41.90
2019-04-09T12:26:22.227Z,39.67
2019-04-09T12:29:15.888Z,38.10
2019-04-09T12:32:10.035Z,42.53
2019-04-09T12:34:42.298Z,39.20
2019-04-09T12:37:25.717Z,38.17
2019-04-09T12:40:08.618Z,41.73
2019-04-09T12:42:55.059Z,37.17
2019-04-09T12:45:25.249Z,36.37
2019-04-09T12:47:56.537Z,38.80
2019-04-09T12:50:35.894Z,38.73
2019-04-09T12:53:18.260Z,35.90
2019-04-09T12:55:48.782Z,37.83
2019-04-09T12:58:19.017Z,41.07
2019-04-09T13:00:58.437Z,38.57
2019-04-09T13:03:46.881Z,46.10
2019-04-09T13:06:33.755Z,43.40
2019-04-09T13:09:09.915Z,45.37
2019-04-09T13:11:57.156Z,40.53
2019-04-09T13:14:36.634Z,46.53
2019-04-09T13:17:07.624Z,39.20
2019-04-09T13:19:38.048Z,44.03
2019-04-09T13:22:24.210Z,38.77
2019-04-09T13:24:57.193Z,39.30
2019-04-09T13:27:43.499Z,41.37
2019-04-09T13:30:17.752Z,36.97
2019-04-09T13:32:51.335Z,42.00
2019-04-09T13:35:30.408Z,59.33
2019-04-09T13:38:04.748Z,77.90
2019-04-09T13:40:35.707Z,50.00
2019-04-09T13:43:07.054Z,34.73
2019-04-09T13:45:55.975Z,41.73
2019-04-09T13:48:26.270Z,35.90
2019-04-09T13:51:11.393Z,33.63
2019-04-09T13:53:40.655Z,26.03
2019-04-09T13:56:10.462Z,27.77
2019-04-09T13:58:39.352Z,25.60
2019-04-09T14:01:08.287Z,28.97
2019-04-09T14:03:54.757Z,29.97
2019-04-09T14:06:23.330Z,34.43
2019-04-09T14:08:51.876Z,22.40
2019-04-09T14:11:20.516Z,21.57
2019-04-09T14:13:49.959Z,19.37
2019-04-09T14:16:18.707Z,17.40
2019-04-09T14:18:47.355Z,19.00
2019-04-09T14:21:16.126Z,19.13
2019-04-09T14:23:44.712Z,15.23
2019-04-09T14:26:14.042Z,15.33
2019-04-09T14:28:42.691Z,16.87
2019-04-09T14:31:11.261Z,21.23
2019-04-09T14:33:40.693Z,19.30
2019-04-09T14:36:10.129Z,18.30
2019-04-09T14:38:39.765Z,18.00
2019-04-09T14:41:08.500Z,19.23
2019-04-09T14:43:37.263Z,25.80
2019-04-09T14:46:06.932Z,51.70
2019-04-09T14:48:35.546Z,20.10
2019-04-09T14:51:04.158Z,19.70
2019-04-09T14:53:32.727Z,21.70
2019-04-09T14:56:01.285Z,27.60
2019-04-09T14:58:29.853Z,21.80
2019-04-09T15:00:59.208Z,24.73
2019-04-09T15:03:29.322Z,25.07
2019-04-09T15:05:58.151Z,21.97
2019-04-09T15:08:27.034Z,24.47
2019-04-09T15:10:56.531Z,27.30
2019-04-09T15:13:26.317Z,28.53
2019-04-09T15:15:54.900Z,24.10
2019-04-09T15:18:23.467Z,25.07
2019-04-09T15:21:10.435Z,26.50
2019-04-09T15:23:38.996Z,23.47
2019-04-09T15:26:07.575Z,25.27
2019-04-09T15:28:36.114Z,30.10
2019-04-09T15:31:04.801Z,30.70
2019-04-09T15:33:34.767Z,27.47
2019-04-09T15:36:04.350Z,28.77
2019-04-09T15:38:33.972Z,31.10
2019-04-09T15:41:02.731Z,27.07
2019-04-09T15:43:31.958Z,27.30
2019-04-09T15:46:00.516Z,28.63
2019-04-09T15:48:30.099Z,28.43
2019-04-09T15:50:58.834Z,31.40
2019-04-09T15:53:33.422Z,29.07
2019-04-09T15:55:58.008Z,31.13
2019-04-09T15:58:26.671Z,31.50
2019-04-09T16:00:55.133Z,26.97
2019-04-09T16:03:27.856Z,23.20
2019-04-09T16:05:54.872Z,33.70
2019-04-09T16:08:23.861Z,24.47
2019-04-09T16:10:53.373Z,24.73
2019-04-09T16:13:22.130Z,24.50
2019-04-09T16:15:54.475Z,19.83
2019-04-09T16:18:21.345Z,21.03
2019-04-09T16:20:51.441Z,20.47
2019-04-09T16:23:20.085Z,24.00
2019-04-09T16:25:48.963Z,19.70
2019-04-09T16:28:17.606Z,17.73
2019-04-09T16:30:46.335Z,21.30
2019-04-09T16:33:18.585Z,18.10
2019-04-09T16:35:45.404Z,19.63
2019-04-09T16:38:14.286Z,18.60
2019-04-09T16:40:43.457Z,20.50
2019-04-09T16:43:12.447Z,22.87
2019-04-09T16:45:41.812Z,21.17
2019-04-09T16:48:10.615Z,21.03
2019-04-09T16:50:39.700Z,18.77
2019-04-09T16:53:09.153Z,18.70
2019-04-09T16:55:38.639Z,21.23
2019-04-09T16:58:09.471Z,23.20
2019-04-09T17:00:38.877Z,21.20
2019-04-09T17:03:07.679Z,25.50
2019-04-09T17:05:36.234Z,22.10
2019-04-09T17:08:05.261Z,22.43
2019-04-09T17:10:35.611Z,18.73
2019-04-09T17:13:04.660Z,21.00
2019-04-09T17:15:33.786Z,21.77
2019-04-09T17:18:02.482Z,22.90
2019-04-09T17:20:31.168Z,19.30
2019-04-09T17:23:00.791Z,18.53
2019-04-09T17:25:30.933Z,23.50
2019-04-09T17:28:00.410Z,21.80
2019-04-09T17:30:30.107Z,22.13
2019-04-09T17:32:58.798Z,21.80
2019-04-09T17:35:27.372Z,20.33
2019-04-09T17:37:55.917Z,21.57
2019-04-09T17:40:25.803Z,18.70
2019-04-09T17:42:55.365Z,21.13
2019-04-09T17:45:24.318Z,21.23
2019-04-09T17:47:52.893Z,25.37
2019-04-09T17:50:22.190Z,25.70
2019-04-09T17:52:51.647Z,31.70
2019-04-09T17:55:21.161Z,34.40
2019-04-09T17:57:51.470Z,33.70
2019-04-09T18:00:22.337Z,42.07
2019-04-09T18:02:53.124Z,34.73
2019-04-09T18:05:22.955Z,32.73
2019-04-09T18:07:51.618Z,36.13
2019-04-09T18:10:20.308Z,36.27
2019-04-09T18:12:49.473Z,33.40
2019-04-09T18:15:18.582Z,35.00
2019-04-09T18:17:47.282Z,58.20
2019-04-09T18:20:17.228Z,44.00
2019-04-09T18:22:45.935Z,33.77
2019-04-09T18:25:15.597Z,42.20
2019-04-09T18:27:44.252Z,37.67
2019-04-09T18:30:13.434Z,34.30
2019-04-09T18:32:42.001Z,33.70
2019-04-09T18:35:11.526Z,31.97
2019-04-09T18:37:40.168Z,34.73
2019-04-09T18:40:09.561Z,32.30
2019-04-09T18:42:39.243Z,32.13
2019-04-09T18:45:08.242Z,31.70
2019-04-09T18:47:36.744Z,32.73
2019-04-09T18:50:08.569Z,35.40
2019-04-09T18:52:37.170Z,32.93
2019-04-09T18:55:09.212Z,32.33
2019-04-09T18:57:38.400Z,37.63
2019-04-09T19:00:09.834Z,35.70
2019-04-09T19:02:38.883Z,31.63
2019-04-09T19:05:12.653Z,37.57
2019-04-09T19:07:39.250Z,34.90
2019-04-09T19:10:08.461Z,35.73
2019-04-09T19:12:37.056Z,33.97
2019-04-09T19:15:06.517Z,35.00
2019-04-09T19:17:35.170Z,40.87
2019-04-09T19:20:05.729Z,37.27
2019-04-09T19:22:35.776Z,35.80
2019-04-09T19:25:06.178Z,43.60
2019-04-09T19:27:35.792Z,38.10
2019-04-09T19:30:07.335Z,35.27
2019-04-09T19:32:36.928Z,40.80
2019-04-09T19:35:18.918Z,38.47
2019-04-09T19:37:39.034Z,44.17
2019-04-09T19:40:14.003Z,42.80
2019-04-09T19:42:43.778Z,40.03
2019-04-09T19:45:13.511Z,40.70
2019-04-09T19:47:42.151Z,40.33
2019-04-09T19:50:11.870Z,38.03
2019-04-09T19:52:40.570Z,41.30
2019-04-09T19:55:10.490Z,39.23
2019-04-09T19:57:39.905Z,41.60
2019-04-09T20:00:10.024Z,36.63
2019-04-09T20:02:38.860Z,37.10
2019-04-09T20:05:07.902Z,36.23
2019-04-09T20:07:36.537Z,38.27
2019-04-09T20:10:23.846Z,36.97
2019-04-09T20:12:53.444Z,38.87
2019-04-09T20:15:22.227Z,38.80
2019-04-09T20:17:51.177Z,42.90
2019-04-09T20:20:19.884Z,40.87
2019-04-09T20:22:49.399Z,38.30
2019-04-09T20:25:19.544Z,40.60
2019-04-09T20:27:48.164Z,40.10
2019-04-09T20:30:16.826Z,40.10
2019-04-09T20:32:46.459Z,42.93
2019-04-09T20:35:17.283Z,36.70
2019-04-09T20:37:45.689Z,48.63
2019-04-09T20:40:17.061Z,46.47
2019-04-09T20:42:44.589Z,40.57
2019-04-09T20:45:14.237Z,47.47
2019-04-09T20:47:43.463Z,39.20
2019-04-09T20:50:13.407Z,39.63
2019-04-09T20:52:41.956Z,47.13
2019-04-09T20:55:13.493Z,42.53
2019-04-09T20:57:42.174Z,42.33
2019-04-09T21:00:40.843Z,43.87
2019-04-09T21:03:26.258Z,45.73
2019-04-09T21:06:01.600Z,45.80
2019-04-09T21:08:26.769Z,43.67
2019-04-09T21:10:55.264Z,41.87
2019-04-09T21:13:23.851Z,43.03
2019-04-09T21:15:52.393Z,44.10
2019-04-09T21:18:20.883Z,38.93
2019-04-09T21:20:49.505Z,42.50
2019-04-09T21:23:18.046Z,44.77
2019-04-09T21:25:46.885Z,44.03
2019-04-09T21:28:15.420Z,44.00
2019-04-09T21:30:44.368Z,43.80
2019-04-09T21:33:13.161Z,43.60
2019-04-09T21:35:42.036Z,50.20
2019-04-09T21:38:11.652Z,48.37
2019-04-09T21:40:40.347Z,48.33
2019-04-09T21:43:09.592Z,45.37
2019-04-09T21:45:38.913Z,46.57
2019-04-09T21:48:07.593Z,43.03
2019-04-09T21:50:36.940Z,42.50
2019-04-09T21:53:05.804Z,45.70
2019-04-09T21:55:34.759Z,43.70
2019-04-09T21:58:03.600Z,42.03
2019-04-09T22:00:42.885Z,46.57
2019-04-09T22:03:11.422Z,42.40
2019-04-09T22:05:40.670Z,47.37
2019-04-09T22:08:09.851Z,45.37
2019-04-09T22:10:38.379Z,47.50
2019-04-09T22:13:06.919Z,44.77
2019-04-09T22:15:36.238Z,41.87
2019-04-09T22:18:15.019Z,43.23
2019-04-09T22:20:35.195Z,43.70
2019-04-09T22:23:03.745Z,46.33
2019-04-09T22:25:32.587Z,46.80
2019-04-09T22:28:01.989Z,47.10
2019-04-09T22:30:30.558Z,45.07
2019-04-09T22:33:07.919Z,46.40
2019-04-09T22:35:29.574Z,48.30
2019-04-09T22:37:58.101Z,47.87
2019-04-09T22:40:26.707Z,45.47
2019-04-09T22:42:56.013Z,45.90
2019-04-09T22:45:25.198Z,43.40
2019-04-09T22:47:53.923Z,42.63
2019-04-09T22:50:22.505Z,43.30
2019-04-09T22:52:52.057Z,44.63
2019-04-09T22:55:20.683Z,39.77
2019-04-09T22:57:50.595Z,43.73
2019-04-09T23:00:21.901Z,42.73
2019-04-09T23:02:52.335Z,44.60
2019-04-09T23:05:35.876Z,41.90
2019-04-09T23:08:07.168Z,49.47
2019-04-09T23:10:54.282Z,50.40
2019-04-09T23:13:24.807Z,48.43
2019-04-09T23:15:53.899Z,45.90
2019-04-09T23:18:22.534Z,46.33
2019-04-09T23:20:51.033Z,44.10
2019-04-09T23:23:20.813Z,46.73
2019-04-09T23:25:49.544Z,44.33
2019-04-09T23:28:19.029Z,45.40
2019-04-09T23:30:48.309Z,47.97
2019-04-09T23:33:17.043Z,40.43
2019-04-09T23:35:45.582Z,45.30
2019-04-09T23:38:14.641Z,44.67
2019-04-09T23:40:43.777Z,43.87
2019-04-09T23:43:12.464Z,40.07
2019-04-09T23:45:41.000Z,37.17
2019-04-09T23:48:10.218Z,46.70
2019-04-09T23:50:38.906Z,43.07
2019-04-09T23:53:08.506Z,44.40
2019-04-09T23:55:37.213Z,42.90
2019-04-09T23:58:06.017Z,50.87
